Time;durP1;ratioP1;P1;durP2;ratioP2;P2;SDS_P1;SDS_P2;PMS_P1;PMS_P2;Temp;Humidity;BMP_temperature;BMP_pressure;BME280_temperature;BME280_humidity;BME280_pressure;Samples;Min_cycle;Max_cycle;Signal;HPM_P1;HPM_P2
2020/12/12 00:00:02;;;;;;;31.25;17.10;;;5.20;99.90;;;;;;5067899;28;20110;-68
2020/12/12 00:02:31;;;;;;;21.02;16.35;;;5.20;99.90;;;;;;5067420;28;20021;-67
2020/12/12 00:05:00;;;;;;;29.77;19.92;;;5.20;99.90;;;;;;5062559;28;20538;-67
2020/12/12 00:07:25;;;;;;;27.83;18.77;;;5.20;99.90;;;;;;5062927;28;20488;-67
2020/12/12 00:09:51;;;;;;;24.48;17.67;;;5.20;99.90;;;;;;5060885;28;20064;-69
2020/12/12 00:12:17;;;;;;;28.70;18.17;;;5.20;99.90;;;;;;5056413;28;20385;-67
2020/12/12 00:14:43;;;;;;;27.95;18.52;;;5.20;99.90;;;;;;5064594;28;20039;-68
2020/12/12 00:17:08;;;;;;;26.05;17.27;;;5.20;99.90;;;;;;5058042;28;20437;-68
2020/12/12 00:19:34;;;;;;;27.92;18.73;;;5.20;99.90;;;;;;5062053;28;20035;-67
2020/12/12 00:21:59;;;;;;;27.83;19.10;;;5.20;99.90;;;;;;5059256;28;20029;-68
2020/12/12 00:24:25;;;;;;;28.85;18.40;;;5.20;99.90;;;;;;5066143;28;20025;-69
2020/12/12 00:26:50;;;;;;;27.48;18.27;;;5.20;99.90;;;;;;5068755;28;20157;-68
2020/12/12 00:29:16;;;;;;;28.00;19.27;;;5.20;99.90;;;;;;5061981;28;20082;-70
2020/12/12 00:31:42;;;;;;;30.33;19.00;;;5.20;99.90;;;;;;5065006;28;20165;-69
2020/12/12 00:34:08;;;;;;;28.92;18.75;;;5.20;99.90;;;;;;5061794;28;20020;-69
2020/12/12 00:36:41;;;;;;;33.22;18.92;;;5.20;99.90;;;;;;5063930;28;20527;-68
2020/12/12 00:39:07;;;;;;;29.83;20.27;;;5.20;99.90;;;;;;5061064;28;20043;-68
2020/12/12 00:41:37;;;;;;;30.85;18.38;;;5.20;99.90;;;;;;5062754;28;20083;-68
2020/12/12 00:44:06;;;;;;;30.75;19.75;;;5.20;99.90;;;;;;5064417;28;20036;-68
2020/12/12 00:46:33;;;;;;;29.95;18.15;;;5.20;99.90;;;;;;5065798;28;20119;-67
2020/12/12 00:48:59;;;;;;;27.60;18.50;;;5.30;99.90;;;;;;5065288;28;20029;-67
2020/12/12 00:51:25;;;;;;;27.95;18.75;;;5.20;99.90;;;;;;5066226;28;20051;-69
2020/12/12 00:53:50;;;;;;;28.67;18.75;;;5.30;99.90;;;;;;5070574;28;20029;-70
2020/12/12 00:56:16;;;;;;;28.33;18.60;;;5.30;99.90;;;;;;5068773;28;20068;-68
2020/12/12 00:58:42;;;;;;;29.25;19.55;;;5.30;99.90;;;;;;5064930;28;20021;-68
2020/12/12 01:01:08;;;;;;;29.40;19.63;;;5.30;99.90;;;;;;5073868;28;20055;-68
2020/12/12 01:03:34;;;;;;;28.83;19.60;;;5.30;99.90;;;;;;5066147;28;20111;-68
2020/12/12 01:05:59;;;;;;;27.70;19.40;;;5.30;99.90;;;;;;5068187;28;20101;-69
2020/12/12 01:08:25;;;;;;;28.67;19.23;;;5.30;99.90;;;;;;5065871;28;20074;-68
2020/12/12 01:10:51;;;;;;;27.75;18.10;;;5.30;99.90;;;;;;5063397;28;20037;-68
2020/12/12 01:13:17;;;;;;;29.45;19.83;;;5.30;99.90;;;;;;5065392;28;20046;-68
2020/12/12 01:15:43;;;;;;;33.22;19.98;;;5.30;99.90;;;;;;5069366;28;20387;-69
2020/12/12 01:18:08;;;;;;;29.73;19.63;;;5.30;99.90;;;;;;5065141;28;20024;-69
2020/12/12 01:20:34;;;;;;;32.05;20.42;;;5.30;99.90;;;;;;5066344;28;20047;-68
2020/12/12 01:22:59;;;;;;;30.52;19.30;;;5.30;99.90;;;;;;5069955;28;20446;-68
2020/12/12 01:25:25;;;;;;;29.83;19.52;;;5.30;99.90;;;;;;5063981;28;20123;-69
2020/12/12 01:27:51;;;;;;;28.63;18.05;;;5.30;99.90;;;;;;5062975;28;20465;-68
2020/12/12 01:30:16;;;;;;;32.13;18.98;;;5.30;99.90;;;;;;5062620;28;20028;-68
2020/12/12 01:32:42;;;;;;;32.72;20.85;;;5.30;99.90;;;;;;5067687;28;20032;-69
2020/12/12 01:35:07;;;;;;;31.55;19.92;;;5.30;99.90;;;;;;5062816;28;20119;-69
2020/12/12 01:37:33;;;;;;;30.33;19.85;;;5.30;99.90;;;;;;5067703;28;20040;-68
2020/12/12 01:39:58;;;;;;;30.00;20.35;;;5.30;99.90;;;;;;5060214;28;20109;-68
2020/12/12 01:42:24;;;;;;;31.77;19.73;;;5.30;99.90;;;;;;5065449;28;20024;-69
2020/12/12 01:44:58;;;;;;;29.80;18.55;;;5.30;99.90;;;;;;5060355;28;20032;-68
2020/12/12 01:47:25;;;;;;;31.50;19.90;;;5.30;99.90;;;;;;5068159;28;20056;-68
2020/12/12 01:49:52;;;;;;;28.63;19.00;;;5.30;99.90;;;;;;5070454;28;20173;-69
2020/12/12 01:52:17;;;;;;;31.30;20.40;;;5.30;99.90;;;;;;5059660;28;20025;-68
2020/12/12 01:54:47;;;;;;;29.92;19.73;;;5.30;99.90;;;;;;5061452;28;20033;-68
2020/12/12 01:57:17;;;;;;;28.20;20.33;;;5.30;99.90;;;;;;5061949;28;20111;-69
2020/12/12 01:59:42;;;;;;;26.92;19.25;;;5.30;99.90;;;;;;5058492;28;20385;-69
2020/12/12 02:02:11;;;;;;;29.42;20.33;;;5.30;99.90;;;;;;5060496;28;20028;-68
2020/12/12 02:04:39;;;;;;;32.10;20.40;;;5.30;99.90;;;;;;5061836;28;20036;-69
2020/12/12 02:07:06;;;;;;;30.52;20.02;;;5.40;99.90;;;;;;5062099;28;20040;-68
2020/12/12 02:09:33;;;;;;;26.95;18.85;;;5.30;99.90;;;;;;5068786;28;20037;-69
2020/12/12 02:12:00;;;;;;;30.98;20.60;;;5.40;99.90;;;;;;5056766;28;20411;-68
2020/12/12 02:14:25;;;;;;;27.65;19.67;;;5.40;99.90;;;;;;5062176;28;20481;-69
2020/12/12 02:16:55;;;;;;;33.95;19.95;;;5.40;99.90;;;;;;5067357;28;20123;-68
2020/12/12 02:19:21;;;;;;;25.80;18.27;;;5.30;99.90;;;;;;5062368;28;20032;-68
2020/12/12 02:21:55;;;;;;;35.97;20.60;;;5.40;99.90;;;;;;5071041;28;20453;-69
2020/12/12 02:24:21;;;;;;;32.30;20.20;;;5.40;99.90;;;;;;5064440;28;20068;-68
2020/12/12 02:26:47;;;;;;;29.08;19.45;;;5.40;99.90;;;;;;5069403;28;20051;-68
2020/12/12 02:29:13;;;;;;;28.85;19.13;;;5.40;99.90;;;;;;5063376;28;20483;-69
2020/12/12 02:31:39;;;;;;;28.48;18.70;;;5.40;99.90;;;;;;5068829;28;20114;-69
2020/12/12 02:34:05;;;;;;;26.08;18.10;;;5.40;99.90;;;;;;5060990;28;20040;-70
2020/12/12 02:36:36;;;;;;;29.30;19.75;;;5.40;99.90;;;;;;5060953;28;20045;-70
2020/12/12 02:39:02;;;;;;;;;;;5.50;99.90;;;;;;5064041;28;20161;-69
2020/12/12 02:41:28;;;;;;;24.67;18.33;;;5.40;99.90;;;;;;5063412;28;20387;-69
2020/12/12 02:43:53;;;;;;;28.08;17.40;;;5.40;99.90;;;;;;5064161;28;20037;-69
2020/12/12 02:46:19;;;;;;;25.48;17.58;;;5.50;99.90;;;;;;5061012;28;20058;-69
2020/12/12 02:48:47;;;;;;;28.75;18.58;;;5.40;99.90;;;;;;5067032;28;20487;-68
2020/12/12 02:51:12;;;;;;;22.70;16.92;;;5.40;99.90;;;;;;5066770;28;20396;-69
2020/12/12 02:53:38;;;;;;;28.73;18.10;;;5.50;99.90;;;;;;5063911;28;20029;-69
2020/12/12 02:56:03;;;;;;;21.60;16.95;;;5.40;99.90;;;;;;5059528;28;20025;-69
2020/12/12 02:58:29;;;;;;;25.70;17.58;;;5.50;99.90;;;;;;5068270;28;20082;-69
2020/12/12 03:00:54;;;;;;;22.00;16.90;;;5.40;99.90;;;;;;5055270;28;20511;-69
2020/12/12 03:03:20;;;;;;;30.38;19.67;;;5.50;99.90;;;;;;5063228;28;20538;-68
2020/12/12 03:05:45;;;;;;;29.08;18.23;;;5.50;99.90;;;;;;5068328;28;20037;-67
2020/12/12 03:08:11;;;;;;;23.88;17.73;;;5.50;99.90;;;;;;5060553;28;20049;-67
2020/12/12 03:10:36;;;;;;;28.33;18.52;;;5.50;99.90;;;;;;5065858;28;20035;-68
2020/12/12 03:13:02;;;;;;;26.67;18.35;;;5.50;99.90;;;;;;5069545;28;20024;-68
2020/12/12 03:15:27;;;;;;;28.92;19.08;;;5.50;99.90;;;;;;5062530;28;20933;-69
2020/12/12 03:17:53;;;;;;;29.40;19.27;;;5.50;99.90;;;;;;5064799;28;20434;-68
2020/12/12 03:20:18;;;;;;;26.10;18.02;;;5.50;99.90;;;;;;5055843;28;20052;-68
2020/12/12 03:22:44;;;;;;;32.22;17.65;;;5.50;99.90;;;;;;5078664;28;20091;-67
2020/12/12 03:25:09;;;;;;;37.30;19.85;;;5.50;99.90;;;;;;5075931;28;20119;-68
2020/12/12 03:27:35;;;;;;;32.13;19.33;;;5.50;99.90;;;;;;5070877;28;20448;-68
2020/12/12 03:30:00;;;;;;;26.98;18.75;;;5.60;99.90;;;;;;5058926;28;20048;-68
2020/12/12 03:32:26;;;;;;;32.03;19.75;;;5.60;99.90;;;;;;5058816;28;20067;-68
2020/12/12 03:34:51;;;;;;;30.38;18.90;;;5.60;99.90;;;;;;5066725;28;20033;-68
2020/12/12 03:37:17;;;;;;;30.42;19.45;;;5.50;99.90;;;;;;5071514;28;20090;-67
2020/12/12 03:39:43;;;;;;;33.08;19.73;;;5.60;99.90;;;;;;5066023;28;20495;-68
2020/12/12 03:42:09;;;;;;;35.20;19.15;;;5.50;99.90;;;;;;5075806;28;20449;-68
2020/12/12 03:44:34;;;;;;;29.60;18.90;;;5.60;99.90;;;;;;5066507;28;20020;-68
2020/12/12 03:47:00;;;;;;;34.17;19.13;;;5.50;99.90;;;;;;5057925;28;20822;-68
2020/12/12 03:49:25;;;;;;;31.02;19.80;;;5.60;99.90;;;;;;5060479;28;20408;-68
2020/12/12 03:51:51;;;;;;;32.78;19.73;;;5.60;99.90;;;;;;5054279;28;20028;-68
2020/12/12 03:54:16;;;;;;;31.92;19.77;;;5.60;99.90;;;;;;5059083;28;20040;-68
2020/12/12 03:56:42;;;;;;;32.95;20.00;;;5.60;99.90;;;;;;5066938;28;20514;-68
2020/12/12 03:59:07;;;;;;;36.38;20.65;;;5.60;99.90;;;;;;5058415;28;20028;-68
2020/12/12 04:01:33;;;;;;;37.65;20.52;;;5.60;99.90;;;;;;5084224;28;20032;-68
2020/12/12 04:03:58;;;;;;;35.42;19.60;;;5.60;99.90;;;;;;5064507;28;20052;-68
2020/12/12 04:06:24;;;;;;;30.38;19.15;;;5.60;99.90;;;;;;5064277;28;20040;-68
2020/12/12 04:08:49;;;;;;;38.63;19.98;;;5.60;99.90;;;;;;5084442;28;20020;-68
2020/12/12 04:11:15;;;;;;;38.25;20.52;;;5.60;99.90;;;;;;5071706;28;20029;-68
2020/12/12 04:13:41;;;;;;;41.00;19.17;;;5.60;99.90;;;;;;5061431;28;20028;-68
2020/12/12 04:16:07;;;;;;;36.22;20.02;;;5.60;99.90;;;;;;5060453;28;20025;-68
2020/12/12 04:18:32;;;;;;;36.78;20.65;;;5.60;99.90;;;;;;5068424;28;20031;-69
2020/12/12 04:20:58;;;;;;;30.15;19.35;;;5.60;99.90;;;;;;5073223;28;20040;-68
2020/12/12 04:23:23;;;;;;;32.88;19.27;;;5.60;99.90;;;;;;5061326;28;20399;-67
2020/12/12 04:25:49;;;;;;;36.35;20.08;;;5.60;99.90;;;;;;5072326;28;20035;-68
2020/12/12 04:28:15;;;;;;;43.40;20.35;;;5.70;99.90;;;;;;5059404;28;20378;-67
2020/12/12 04:30:40;;;;;;;35.97;19.67;;;5.70;99.90;;;;;;5065932;28;20031;-69
2020/12/12 04:33:06;;;;;;;45.03;21.15;;;5.70;99.90;;;;;;5069488;28;20025;-69
2020/12/12 04:35:31;;;;;;;38.22;20.77;;;5.70;99.90;;;;;;5070122;28;20024;-69
2020/12/12 04:37:57;;;;;;;51.67;20.73;;;5.60;99.90;;;;;;5064134;28;20507;-67
2020/12/12 04:40:23;;;;;;;30.75;19.15;;;5.70;99.90;;;;;;5059642;28;20449;-67
2020/12/12 04:42:48;;;;;;;35.10;20.08;;;5.70;99.90;;;;;;5072054;28;20024;-67
2020/12/12 04:45:20;;;;;;;43.38;21.27;;;5.70;99.90;;;;;;5062633;28;20119;-68
2020/12/12 04:47:48;;;;;;;40.47;20.65;;;5.70;99.90;;;;;;5067225;28;20031;-68
2020/12/12 04:50:13;;;;;;;36.78;20.10;;;5.70;99.90;;;;;;5065328;28;20127;-67
2020/12/12 04:52:41;;;;;;;41.05;20.35;;;5.70;99.90;;;;;;5067477;28;20103;-68
2020/12/12 04:55:08;;;;;;;39.08;20.20;;;5.80;99.90;;;;;;5064269;28;20131;-69
2020/12/12 04:57:34;;;;;;;34.78;21.17;;;5.70;99.90;;;;;;5078012;28;20415;-68
2020/12/12 05:00:01;;;;;;;39.83;21.95;;;5.80;99.90;;;;;;5066594;28;20040;-69
2020/12/12 05:02:26;;;;;;;38.92;20.58;;;5.80;99.90;;;;;;5073206;28;20103;-69
2020/12/12 05:04:52;;;;;;;40.40;21.20;;;5.70;99.90;;;;;;5064575;28;20111;-68
2020/12/12 05:07:18;;;;;;;33.92;20.17;;;5.80;99.90;;;;;;5061438;28;20135;-69
2020/12/12 05:09:44;;;;;;;47.00;20.52;;;5.80;99.90;;;;;;5078035;28;20016;-69
2020/12/12 05:12:13;;;;;;;41.08;21.48;;;5.80;99.90;;;;;;5070257;28;20043;-69
2020/12/12 05:14:39;;;;;;;40.53;20.13;;;5.80;99.90;;;;;;5075152;28;20175;-69
2020/12/12 05:17:07;;;;;;;41.90;21.45;;;5.80;99.90;;;;;;5069692;28;20104;-69
2020/12/12 05:19:33;;;;;;;38.28;19.20;;;5.80;99.90;;;;;;5061074;28;20112;-69
2020/12/12 05:22:02;;;;;;;31.27;18.83;;;5.80;99.90;;;;;;5076013;28;20036;-69
2020/12/12 05:24:28;;;;;;;41.28;20.95;;;5.80;99.90;;;;;;5059723;28;20392;-69
2020/12/12 05:27:00;;;;;;;35.40;19.88;;;5.80;99.90;;;;;;5066097;28;20052;-70
2020/12/12 05:29:25;;;;;;;39.03;21.92;;;5.80;99.90;;;;;;5087290;28;20051;-69
2020/12/12 05:31:53;;;;;;;37.85;21.77;;;5.90;99.90;;;;;;5069959;28;20384;-69
2020/12/12 05:34:19;;;;;;;37.20;21.02;;;5.80;99.90;;;;;;5059472;28;20032;-69
2020/12/12 05:36:45;;;;;;;41.13;21.83;;;5.80;99.90;;;;;;5069023;28;20116;-68
2020/12/12 05:39:12;;;;;;;43.03;21.42;;;5.90;99.90;;;;;;5068728;28;20024;-68
2020/12/12 05:41:39;;;;;;;43.10;21.60;;;5.90;99.90;;;;;;5086384;28;20049;-68
2020/12/12 05:44:05;;;;;;;42.38;21.58;;;5.80;99.90;;;;;;5074713;28;20135;-69
2020/12/12 05:46:31;;;;;;;38.70;21.25;;;5.90;99.90;;;;;;5066069;28;20033;-68
2020/12/12 05:48:58;;;;;;;34.95;20.55;;;5.90;99.90;;;;;;5062955;28;20098;-69
2020/12/12 05:51:29;;;;;;;39.67;21.40;;;5.90;99.90;;;;;;5064546;28;20477;-68
2020/12/12 05:53:56;;;;;;;43.45;21.17;;;5.90;99.90;;;;;;5069774;28;20482;-68
2020/12/12 05:56:23;;;;;;;42.88;21.35;;;5.90;99.90;;;;;;5068389;28;20028;-68
2020/12/12 05:58:50;;;;;;;45.55;22.10;;;5.90;99.90;;;;;;5062700;28;20433;-68
2020/12/12 06:01:25;;;;;;;41.47;19.95;;;5.90;99.90;;;;;;5072203;28;20046;-69
2020/12/12 06:03:53;;;;;;;44.00;21.23;;;5.90;99.90;;;;;;5068465;28;20034;-68
2020/12/12 06:06:24;;;;;;;47.90;21.40;;;5.90;99.90;;;;;;5072097;28;20032;-68
2020/12/12 06:09:08;;;;;;;;;;;6.00;99.90;;;;;;5072934;28;20469;-68
2020/12/12 06:11:39;;;;;;;44.72;20.90;;;6.00;99.90;;;;;;5070626;28;19916;-68
2020/12/12 06:14:05;;;;;;;;;;;6.00;99.90;;;;;;5070067;28;20024;-68
2020/12/12 06:16:33;;;;;;;48.45;21.08;;;6.00;99.90;;;;;;5066539;28;19960;-69
2020/12/12 06:19:11;;;;;;;51.35;21.15;;;6.00;99.90;;;;;;5069542;28;20113;-68
2020/12/12 06:21:39;;;;;;;46.88;21.20;;;6.00;99.90;;;;;;5068813;28;20035;-68
2020/12/12 06:24:09;;;;;;;45.67;20.75;;;6.00;99.90;;;;;;5063083;28;20110;-67
2020/12/12 06:26:48;;;;;;;37.30;20.43;;;6.00;99.90;;;;;;5065629;28;20127;-67
2020/12/12 06:29:17;;;;;;;55.72;23.85;;;6.00;99.90;;;;;;5058346;28;20337;-68
2020/12/12 06:31:43;;;;;;;41.65;22.00;;;6.10;99.90;;;;;;5073196;28;20110;-67
2020/12/12 06:34:09;;;;;;;51.13;21.85;;;6.10;99.90;;;;;;5083372;28;20027;-67
2020/12/12 06:36:36;;;;;;;43.33;21.42;;;6.10;99.90;;;;;;5067825;28;20028;-68
2020/12/12 06:39:43;;;;;;;57.33;22.33;;;6.00;99.90;;;;;;5065640;28;20039;-68
2020/12/12 06:42:30;;;;;;;44.33;21.63;;;6.10;99.90;;;;;;5037541;28;20043;-68
2020/12/12 06:44:56;;;;;;;46.58;21.25;;;6.10;99.90;;;;;;5079778;28;20085;-68
2020/12/12 06:47:39;;;;;;;57.55;22.42;;;6.10;99.90;;;;;;5086938;28;20043;-68
2020/12/12 06:50:14;;;;;;;46.97;21.73;;;6.10;99.90;;;;;;5074824;28;20515;-68
2020/12/12 06:52:41;;;;;;;57.90;22.42;;;6.10;99.90;;;;;;5069345;28;20075;-68
2020/12/12 06:55:11;;;;;;;59.55;21.60;;;6.00;99.90;;;;;;5078659;28;20028;-68
2020/12/12 06:57:48;;;;;;;79.72;24.23;;;6.10;99.90;;;;;;5078535;28;20146;-68
2020/12/12 07:00:31;;;;;;;36.22;20.63;;;6.00;99.90;;;;;;5080932;28;20877;-68
2020/12/12 07:03:05;;;;;;;43.55;20.88;;;6.00;99.90;;;;;;5079788;28;20012;-67
2020/12/12 07:05:33;;;;;;;52.90;21.10;;;6.10;99.90;;;;;;5085390;28;20453;-68
2020/12/12 07:08:10;;;;;;;48.80;23.83;;;6.10;99.90;;;;;;5086954;28;20078;-68
2020/12/12 07:10:40;;;;;;;52.33;23.17;;;6.10;99.90;;;;;;5078842;28;20024;-68
2020/12/12 07:13:07;;;;;;;57.60;21.88;;;6.10;99.90;;;;;;5086541;28;20028;-68
2020/12/12 07:15:35;;;;;;;54.42;22.13;;;6.10;99.90;;;;;;5078202;28;20147;-68
2020/12/12 07:18:06;;;;;;;52.42;22.33;;;6.10;99.90;;;;;;5081097;28;20221;-68
2020/12/12 07:20:39;;;;;;;;;;;6.10;99.90;;;;;;5088318;28;20044;-67
2020/12/12 07:23:06;;;;;;;54.53;21.45;;;6.20;99.90;;;;;;5083983;28;19908;-68
2020/12/12 07:25:33;;;;;;;59.13;21.40;;;6.10;99.90;;;;;;5072692;28;20039;-68
2020/12/12 07:27:59;;;;;;;54.25;22.30;;;6.20;99.90;;;;;;5079245;28;20118;-69
2020/12/12 07:30:25;;;;;;;49.67;22.45;;;6.20;99.90;;;;;;5073224;28;20119;-69
2020/12/12 07:32:50;;;;;;;48.55;21.10;;;6.20;99.90;;;;;;5084876;28;20075;-68
2020/12/12 07:35:16;;;;;;;62.80;23.77;;;6.20;99.90;;;;;;5080759;28;20016;-70
2020/12/12 07:37:41;;;;;;;54.60;23.33;;;6.20;99.90;;;;;;5076924;28;20555;-68
2020/12/12 07:40:07;;;;;;;68.43;23.15;;;6.20;99.90;;;;;;5086552;28;20217;-68
2020/12/12 07:42:35;;;;;;;49.38;22.92;;;6.20;99.90;;;;;;5078766;28;20073;-67
2020/12/12 07:47:36;;;;;;;57.08;22.25;;;6.20;99.90;;;;;;5072253;28;20481;-68
2020/12/12 07:50:05;;;;;;;69.35;24.17;;;6.20;99.90;;;;;;5078069;28;20043;-67
2020/12/12 07:52:31;;;;;;;55.35;23.42;;;6.30;99.90;;;;;;5073923;28;20086;-68
2020/12/12 07:57:22;;;;;;;83.40;23.05;;;6.30;99.90;;;;;;5070020;28;20043;-68
2020/12/12 07:59:47;;;;;;;91.95;24.27;;;6.30;99.90;;;;;;5079066;28;20033;-68
2020/12/12 08:02:14;;;;;;;69.60;23.65;;;6.30;99.90;;;;;;5087906;28;20030;-67
2020/12/12 08:04:40;;;;;;;57.55;23.17;;;6.30;99.90;;;;;;5088339;28;20369;-67
2020/12/12 08:07:10;;;;;;;56.35;22.70;;;6.30;99.90;;;;;;5079877;28;20049;-67
2020/12/12 08:09:36;;;;;;;106.05;26.35;;;6.40;99.90;;;;;;5087143;28;20024;-67
2020/12/12 08:12:03;;;;;;;57.85;22.60;;;6.40;99.90;;;;;;5083337;28;20380;-67
2020/12/12 08:14:31;;;;;;;55.58;21.55;;;6.40;99.90;;;;;;5076673;28;20024;-67
2020/12/12 08:16:59;;;;;;;75.93;24.70;;;6.40;99.90;;;;;;5079580;28;20029;-66
2020/12/12 08:19:25;;;;;;;53.60;21.77;;;6.50;99.90;;;;;;5083779;28;20191;-68
2020/12/12 08:22:12;;;;;;;66.75;22.38;;;6.50;99.90;;;;;;5076566;28;20028;-68
2020/12/12 08:24:37;;;;;;;52.58;22.83;;;6.50;99.90;;;;;;5074594;28;20040;-68
2020/12/12 08:27:14;;;;;;;68.10;22.13;;;6.50;99.90;;;;;;5079442;28;20050;-68
2020/12/12 08:29:47;;;;;;;43.67;20.70;;;6.50;99.90;;;;;;5084660;28;20020;-68
2020/12/12 08:32:30;;;;;;;65.60;23.05;;;6.60;99.90;;;;;;5078096;28;20028;-68
2020/12/12 08:35:16;;;;;;;53.28;21.67;;;6.60;99.90;;;;;;5068771;28;20505;-67
2020/12/12 08:37:57;;;;;;;56.83;20.80;;;6.60;99.90;;;;;;5059217;28;20028;-68
2020/12/12 08:40:26;;;;;;;;;;;6.70;99.90;;;;;;5067544;28;20044;-68
2020/12/12 08:42:58;;;;;;;90.65;23.52;;;6.70;99.90;;;;;;5061851;28;19912;-67
2020/12/12 08:45:25;;;;;;;90.32;24.45;;;6.70;99.90;;;;;;5059814;28;20066;-67
2020/12/12 08:48:04;;;;;;;59.35;23.10;;;6.70;99.90;;;;;;5064502;28;20028;-68
2020/12/12 08:50:43;;;;;;;80.40;23.23;;;6.80;99.90;;;;;;5069547;28;20020;-66
2020/12/12 08:53:38;;;;;;;142.05;26.00;;;6.80;99.90;;;;;;5068669;28;20116;-68
2020/12/12 08:56:14;;;;;;;112.68;24.05;;;6.80;99.90;;;;;;5068359;28;20154;-67
2020/12/12 08:59:00;;;;;;;53.63;22.20;;;6.90;99.90;;;;;;5086312;28;20417;-67
2020/12/12 09:01:43;;;;;;;63.72;23.83;;;6.90;99.90;;;;;;5078161;28;20041;-67
2020/12/12 09:04:08;;;;;;;205.38;29.63;;;6.90;99.90;;;;;;5065156;28;20029;-69
2020/12/12 09:06:47;;;;;;;63.88;25.25;;;7.00;99.90;;;;;;5062656;28;20024;-67
2020/12/12 09:09:30;;;;;;;68.53;22.88;;;7.00;99.90;;;;;;5071303;28;20071;-68
2020/12/12 09:11:59;;;;;;;85.78;28.27;;;7.10;99.90;;;;;;5069843;28;20033;-69
2020/12/12 09:14:26;;;;;;;75.35;26.55;;;7.10;99.90;;;;;;5068816;28;20037;-68
2020/12/12 09:16:54;;;;;;;87.75;29.00;;;7.20;99.90;;;;;;5074253;28;20051;-67
2020/12/12 09:19:21;;;;;;;103.15;27.70;;;7.20;99.90;;;;;;5069186;28;20116;-68
2020/12/12 09:21:47;;;;;;;135.13;29.33;;;7.30;99.90;;;;;;5063647;28;20075;-68
2020/12/12 09:24:13;;;;;;;111.22;28.40;;;7.30;99.90;;;;;;5058629;28;20036;-68
2020/12/12 09:26:39;;;;;;;89.43;26.15;;;7.40;99.90;;;;;;5062100;28;20075;-68
2020/12/12 09:29:04;;;;;;;84.15;28.65;;;7.40;99.90;;;;;;5074784;28;20041;-68
2020/12/12 09:31:30;;;;;;;210.27;31.92;;;7.40;99.90;;;;;;5059902;28;20497;-69
2020/12/12 09:33:56;;;;;;;97.38;28.92;;;7.40;99.90;;;;;;5062979;28;20550;-68
2020/12/12 09:36:22;;;;;;;71.03;25.38;;;7.50;99.90;;;;;;5062883;28;20032;-68
2020/12/12 09:38:48;;;;;;;95.03;28.85;;;7.60;99.90;;;;;;5065819;28;20033;-68
2020/12/12 09:41:14;;;;;;;148.45;33.00;;;7.60;99.90;;;;;;5056274;28;20142;-69
2020/12/12 09:43:40;;;;;;;97.47;29.55;;;7.70;99.90;;;;;;5053639;28;20025;-68
2020/12/12 09:46:07;;;;;;;95.85;31.92;;;7.70;99.90;;;;;;5054367;28;20031;-68
2020/12/12 09:48:33;;;;;;;84.35;30.98;;;7.70;99.90;;;;;;5051806;28;20036;-68
2020/12/12 09:50:59;;;;;;;108.90;32.17;;;7.80;99.90;;;;;;5055114;28;20037;-68
2020/12/12 09:53:24;;;;;;;90.43;31.98;;;7.80;99.90;;;;;;5064043;28;20058;-68
2020/12/12 09:55:53;;;;;;;101.88;32.10;;;7.80;99.90;;;;;;5066266;28;20033;-67
2020/12/12 09:58:18;;;;;;;99.18;30.58;;;7.90;99.90;;;;;;5066824;28;20032;-69
2020/12/12 10:00:44;;;;;;;86.90;29.10;;;7.90;99.90;;;;;;5057555;28;20455;-68
2020/12/12 10:03:09;;;;;;;100.55;29.13;;;8.00;99.90;;;;;;5052316;28;20025;-68
2020/12/12 10:05:36;;;;;;;84.63;28.60;;;8.00;99.90;;;;;;5061487;28;20035;-68
2020/12/12 10:08:03;;;;;;;79.18;28.42;;;8.00;99.90;;;;;;5059343;28;20059;-68
2020/12/12 10:10:29;;;;;;;85.00;28.58;;;8.00;99.90;;;;;;5054451;28;20527;-68
2020/12/12 10:12:55;;;;;;;84.68;28.95;;;8.00;99.90;;;;;;5066059;28;20397;-69
2020/12/12 10:15:22;;;;;;;76.13;25.98;;;8.10;99.90;;;;;;5051585;28;20029;-68
2020/12/12 10:17:48;;;;;;;82.43;26.33;;;8.10;99.90;;;;;;5053388;28;20055;-68
2020/12/12 10:20:15;;;;;;;67.80;24.00;;;8.10;99.90;;;;;;5062434;28;20114;-68
2020/12/12 10:22:41;;;;;;;83.03;26.08;;;8.10;99.90;;;;;;5054849;28;20555;-68
2020/12/12 10:25:07;;;;;;;78.10;27.35;;;8.20;99.90;;;;;;5054057;28;20121;-68
2020/12/12 10:27:34;;;;;;;89.35;27.40;;;8.20;99.90;;;;;;5058989;28;20615;-69
2020/12/12 10:29:59;;;;;;;72.97;24.48;;;8.30;99.90;;;;;;5060493;28;20021;-68
2020/12/12 10:32:25;;;;;;;88.97;26.27;;;8.40;99.90;;;;;;5053713;28;20032;-68
2020/12/12 10:34:51;;;;;;;85.15;25.88;;;8.40;99.90;;;;;;5051856;28;20065;-69
2020/12/12 10:37:17;;;;;;;68.00;23.92;;;8.50;99.90;;;;;;5055276;28;20025;-68
2020/12/12 10:40:30;;;;;;;72.97;24.70;;;8.50;99.90;;;;;;5057530;28;20040;-69
2020/12/12 10:42:28;;;;;;;69.55;23.30;;;8.50;99.90;;;;;;5048047;28;20090;-68
2020/12/12 10:44:53;;;;;;;75.75;25.95;;;8.60;99.90;;;;;;5058815;28;20460;-69
2020/12/12 10:47:20;;;;;;;74.18;23.88;;;8.50;99.90;;;;;;5053544;28;20029;-67
2020/12/12 10:49:45;;;;;;;70.22;25.88;;;8.50;99.90;;;;;;5053712;28;20399;-68
2020/12/12 10:52:11;;;;;;;75.30;26.05;;;8.50;99.90;;;;;;5052440;28;20028;-67
2020/12/12 10:54:38;;;;;;;68.75;25.83;;;8.50;99.90;;;;;;5054999;28;20025;-68
2020/12/12 10:57:03;;;;;;;73.00;26.05;;;8.60;99.90;;;;;;5051950;28;20039;-69
2020/12/12 10:59:29;;;;;;;72.72;25.05;;;8.60;99.90;;;;;;5053669;28;20025;-68
2020/12/12 11:01:55;;;;;;;73.28;25.85;;;8.70;99.90;;;;;;5052241;28;20037;-68
2020/12/12 11:04:22;;;;;;;76.68;26.50;;;8.70;99.90;;;;;;5050840;28;20036;-68
2020/12/12 11:06:49;;;;;;;68.55;24.50;;;8.70;99.90;;;;;;5053087;28;20025;-68
2020/12/12 11:09:15;;;;;;;71.80;24.75;;;8.70;99.90;;;;;;5052378;28;20020;-68
2020/12/12 11:11:41;;;;;;;69.57;24.88;;;8.70;99.90;;;;;;5054069;28;20028;-68
2020/12/12 11:14:08;;;;;;;72.60;25.85;;;8.80;99.90;;;;;;5053852;28;20017;-68
2020/12/12 11:16:34;;;;;;;70.80;26.08;;;8.90;99.90;;;;;;5051153;28;20124;-68
2020/12/12 11:19:00;;;;;;;64.20;24.65;;;8.90;99.90;;;;;;5053247;28;20017;-69
2020/12/12 11:21:25;;;;;;;67.30;24.92;;;8.90;99.90;;;;;;5053991;28;20135;-67
2020/12/12 11:23:51;;;;;;;63.75;25.10;;;8.90;99.90;;;;;;5055156;28;20039;-68
2020/12/12 11:26:17;;;;;;;61.85;25.17;;;8.90;99.90;;;;;;5058128;28;20075;-67
2020/12/12 11:28:45;;;;;;;67.85;25.20;;;8.90;99.90;;;;;;5057214;28;20040;-67
2020/12/12 11:31:14;;;;;;;61.00;24.98;;;8.90;99.90;;;;;;5058470;28;20024;-68
2020/12/12 11:33:40;;;;;;;62.30;24.02;;;8.90;99.90;;;;;;5059586;28;20024;-67
2020/12/12 11:38:53;;;;;;;64.68;24.38;;;8.80;99.90;;;;;;5056903;28;20028;-68
2020/12/12 11:46:37;;;;;;;66.28;24.10;;;8.90;99.90;;;;;;5075876;28;20042;-67
2020/12/12 11:49:04;;;;;;;63.08;24.23;;;8.90;99.90;;;;;;5062017;28;20017;-67
2020/12/12 11:51:34;;;;;;;61.15;24.52;;;8.90;99.90;;;;;;5066846;28;20036;-68
2020/12/12 11:54:00;;;;;;;55.42;23.25;;;9.00;99.90;;;;;;5059140;28;20032;-68
2020/12/12 11:56:26;;;;;;;53.75;23.88;;;9.00;99.90;;;;;;5057071;28;20032;-68
2020/12/12 11:58:52;;;;;;;67.63;25.92;;;9.10;99.90;;;;;;5058398;28;20085;-67
2020/12/12 12:01:22;;;;;;;57.38;24.42;;;9.00;99.90;;;;;;5065196;28;20045;-67
2020/12/12 12:03:48;;;;;;;62.33;24.75;;;9.10;99.90;;;;;;5057265;28;20024;-67
2020/12/12 12:06:14;;;;;;;62.17;24.02;;;9.10;99.90;;;;;;5067512;28;20043;-67
2020/12/12 12:08:50;;;;;;;67.05;28.98;;;9.10;99.90;;;;;;5057070;28;20020;-67
2020/12/12 12:13:41;;;;;;;60.70;25.95;;;9.20;99.90;;;;;;5052702;28;20477;-67
2020/12/12 12:16:07;;;;;;;67.40;26.08;;;9.20;99.90;;;;;;5057431;28;20036;-68
2020/12/12 12:18:33;;;;;;;64.80;26.15;;;9.20;99.90;;;;;;5060723;28;20540;-67
2020/12/12 12:21:00;;;;;;;66.72;25.15;;;9.20;99.90;;;;;;5063494;28;20477;-67
2020/12/12 12:23:26;;;;;;;49.47;23.95;;;9.20;99.90;;;;;;5062298;28;20024;-67
2020/12/12 12:25:53;;;;;;;60.22;25.90;;;9.20;99.90;;;;;;5070455;28;20037;-68
2020/12/12 12:28:19;;;;;;;56.58;25.75;;;9.20;99.90;;;;;;5063512;28;20064;-67
2020/12/12 12:30:46;;;;;;;63.20;25.30;;;9.20;99.90;;;;;;5064140;28;20134;-67
2020/12/12 12:33:11;;;;;;;65.47;26.30;;;9.20;99.90;;;;;;5060295;28;20029;-67
2020/12/12 12:35:37;;;;;;;55.35;24.65;;;9.20;99.90;;;;;;5069916;28;20492;-68
2020/12/12 12:38:03;;;;;;;53.67;24.88;;;9.10;99.90;;;;;;5060588;28;20142;-68
2020/12/12 12:40:28;;;;;;;56.90;24.52;;;9.20;99.90;;;;;;5064879;28;20101;-68
2020/12/12 12:42:56;;;;;;;60.97;25.35;;;9.20;99.90;;;;;;5070369;28;20429;-67
2020/12/12 12:45:21;;;;;;;62.25;26.58;;;9.20;99.90;;;;;;5062852;28;20036;-68
2020/12/12 12:47:48;;;;;;;66.88;25.90;;;9.20;99.90;;;;;;5068037;28;20042;-67
2020/12/12 12:50:13;;;;;;;62.97;25.13;;;9.20;99.90;;;;;;5062805;28;20075;-68
2020/12/12 12:52:39;;;;;;;53.47;24.85;;;9.20;99.90;;;;;;5066585;28;20013;-68
2020/12/12 12:55:06;;;;;;;56.78;25.77;;;9.20;99.90;;;;;;5058225;28;20033;-68